Rocky Branch, Texas
Current Conditions -  °F | °C
As of 7:15 PM on Sunday 21 Dec 2014 (Local Time) from KOSA Reporting Station
Overcast Overcast  
Wind Chill: 47°   Ceiling: 2000
Heat Index: 49°   Visibility: 10mi
Dew Point: 44°   Wind: 6mph
Humidity: 81%   Direction: 170°S
Pressure: 29.93"   Gusts: NA
Location:  33.2006°N, 94.6977°W
Report Text: KOSA 220115Z AUTO 17005KT 10SM OVC020 10/07 A2993 RMK AO1 T00970066
Loading
Personal Weather Stations






























Interactive Weather Map New forecast layout! Learn more

10-Day Weather Forecast

Advertisements
Track Severe Weather on mobile